Baton Rouge, LA (70806)

7:27 AM CST on February 09, 2016 (GMT -0600)
Capital Heights | | Change Station
CLOSE
Current Station
Personal Weather Station
Location: Baton Rouge, LA
Elevation: 82 ft
Nearby Weather Stations
Active Advisory: Wind Advisory

Elev 82 ft 30.44 °N, 91.13 °W | Updated 37 seconds ago

Clear
Clear
41.2 °F
Feels Like 41 °F
N
0.0
Wind Variable Wind from SW
Gusts 0.0 mph

Today
High -- | Low -- °F
--% Chance of Precip.
Yesterday
High -- | Low -- °F
Precip. -- in
Pressure 30.19 in
Visibility 10.0 miles
Clouds Clear
Windchill 41 °F
Dew Point 23 °F
Humidity 48%
Rainfall 0.00 in
Snow Depth Not available.
6:50 AM 5:47 PM
New Moon, 1% visible
METAR KBTR 091253Z 30008G16KT 10SM CLR 04/M08 A3018 RMK AO2 SLP221 T00441078
Pressure 30.19 in
Visibility 10.0 miles
Clouds Clear
Windchill 41 °F
Dew Point 23 °F
Humidity 48%
Rainfall 0.00 in
Snow Depth Not available.
6:50 AM 5:47 PM
New Moon, 1% visible
METAR KBTR 091253Z 30008G16KT 10SM CLR 04/M08 A3018 RMK AO2 SLP221 T00441078

10-Day Weather Forecast

Almanac

Astronomy

Feb. 09, 2016 Rise Set
Actual Time
Civil Twilight
Nautical Twilight
Astronomical Twilight
Moon
Length of Visible Light
Length of Day
Tomorrow will be .
, % of the Moon is Illuminated

Today's Extremes

State Highs State Lows

Community

WunderPhotos

Upload Photos

1,891,591 photos uploaded!

WunderBlog® & News

Nearby

Air Quality

  Air Quality AQ Index Pollutant
Not available.

Snow Depth

Station Depth Elevation

Earthquake Activity

City Distance Mag. Time & Date
Minimum magnitude displayed is 2.5.

Coastal Water Temperatures

Place Temperature

Stations

Nearby Weather Stations

Station Location Temp. Windchill Dew Point Humidity Wind Precip. Elev Updated Type
                   

Watches & Warnings

Wind Advisory
Issued: 3:23 AM CST Feb. 9, 2016 – National Weather Service

... Wind Advisory in effect from 9 am this morning to 5 PM CST
this afternoon...

The National Weather Service in New Orleans has issued a Wind
Advisory... which is in effect from 9 am this morning to 5 PM CST
this afternoon.

* Winds... 20 to 25 mph with frequent gusts of 35 and up to 40
mph.

* Impacts... windy conditions will lead to difficult driving
conditions especially along elevated roadways along with
east/west highways and interstates.

Precautionary/preparedness actions...

A Wind Advisory means that winds of 26 to 39 mph are expected.
Winds this strong can make driving difficult... especially for
high profile vehicles. Use extra caution.



Cab